Main page
METAR-TAF:

METAR-TAF

Airports :

Hrodna Airport

Grodno, Belarus

latitude: 53-36-06N, longitude: 024-03-18E, elevation: 135 m

Current weather observation

The report was made 8 hours and 9 minutes ago, at 14:00 UTC
Wind 6 kt from the South/Southeast
Temperature -3°C
Humidity 86%
Pressure 1017 hPa
Visibility: 9000 m
Few clouds at a height of 1300 ft
Broken clouds at a height of 6600 ft

METAR: UMMG 221400Z 16003MPS 9000 FEW013 BKN066 M03/M05 Q1017 NOSIG

Time: 01:09 (22:09 UTC)

Forecast

The report was made 8 hours and 9 minutes ago, at 14:00 UTC
Forecast valid from 22 at 15 UTC to 22 at 24 UTC
Wind 10 kt from the South
Visibility: 6000 m
Broken clouds at a height of 1000 ft
Temporary
from 22 at 15 UTC to 22 at 18 UTC
Visibility: 3000 m
Broken clouds at a height of 600 ft
mist
Temporary
from 22 at 18 UTC to 22 at 24 UTC
Visibility: 1200 m
Overcast at a height of 400 ft
mist

TAF: UMMG 221400Z 2215/2224 17005MPS 6000 BKN010 TEMPO 2215/2218 3000 BR BKN006 TEMPO 2218/2224 1200 BR OVC004

Weather observations and forecasts of more than 4000 airports (METAR and TAF reports).

The available stations are represented by yellow and red dots on the map.

Hover mouse over dot to see the name of the station.

Then click to see weather observations and forecasts.

To change the map : click on the green buttons with a black cross to zoom in, on the green button with a dash to zoom out, or on the green arrows for adjacent maps.


METAR-TAF: